sensor_id;sensor_type;location;lat;lon;timestamp;temperature;humidity
16825;DHT22;8529;48.108;-1.706;2022-12-18T00:01:05;0.00;99.90
16825;DHT22;8529;48.108;-1.706;2022-12-18T00:03:33;-0.10;99.90
16825;DHT22;8529;48.108;-1.706;2022-12-18T00:06:00;-0.10;99.90
16825;DHT22;8529;48.108;-1.706;2022-12-18T00:08:27;-0.10;99.90
16825;DHT22;8529;48.108;-1.706;2022-12-18T00:10:55;-0.10;99.90
16825;DHT22;8529;48.108;-1.706;2022-12-18T00:13:22;-0.10;99.90
16825;DHT22;8529;48.108;-1.706;2022-12-18T00:15:50;-0.10;99.90
16825;DHT22;8529;48.108;-1.706;2022-12-18T00:18:17;0.00;99.90
16825;DHT22;8529;48.108;-1.706;2022-12-18T00:20:44;-0.10;99.90
16825;DHT22;8529;48.108;-1.706;2022-12-18T00:23:11;-0.10;99.90
16825;DHT22;8529;48.108;-1.706;2022-12-18T00:25:38;0.00;99.90
16825;DHT22;8529;48.108;-1.706;2022-12-18T00:28:05;0.00;99.90
16825;DHT22;8529;48.108;-1.706;2022-12-18T00:30:32;-0.10;99.90
16825;DHT22;8529;48.108;-1.706;2022-12-18T00:33:00;0.00;99.90
16825;DHT22;8529;48.108;-1.706;2022-12-18T00:35:27;0.00;99.90
16825;DHT22;8529;48.108;-1.706;2022-12-18T00:37:54;0.00;99.90
16825;DHT22;8529;48.108;-1.706;2022-12-18T00:40:21;-0.10;99.90
16825;DHT22;8529;48.108;-1.706;2022-12-18T00:42:48;-0.10;99.90
16825;DHT22;8529;48.108;-1.706;2022-12-18T00:45:25;-0.10;99.90
16825;DHT22;8529;48.108;-1.706;2022-12-18T00:47:52;-0.10;99.90
16825;DHT22;8529;48.108;-1.706;2022-12-18T00:50:21;-0.10;99.90
16825;DHT22;8529;48.108;-1.706;2022-12-18T00:52:48;-0.10;99.90
16825;DHT22;8529;48.108;-1.706;2022-12-18T00:55:16;-0.10;99.90
16825;DHT22;8529;48.108;-1.706;2022-12-18T00:57:43;-0.10;99.90
16825;DHT22;8529;48.108;-1.706;2022-12-18T01:00:13;-0.10;99.90
16825;DHT22;8529;48.108;-1.706;2022-12-18T01:02:41;-0.10;99.90
16825;DHT22;8529;48.108;-1.706;2022-12-18T01:05:09;-0.10;99.90
16825;DHT22;8529;48.108;-1.706;2022-12-18T01:07:37;-0.10;99.90
16825;DHT22;8529;48.108;-1.706;2022-12-18T01:10:06;-0.10;99.90
16825;DHT22;8529;48.108;-1.706;2022-12-18T01:12:33;-0.10;99.90
16825;DHT22;8529;48.108;-1.706;2022-12-18T01:15:00;-0.10;99.90
16825;DHT22;8529;48.108;-1.706;2022-12-18T01:17:27;-0.10;99.90
16825;DHT22;8529;48.108;-1.706;2022-12-18T01:19:54;-0.10;99.90
16825;DHT22;8529;48.108;-1.706;2022-12-18T01:22:21;-0.10;99.90
16825;DHT22;8529;48.108;-1.706;2022-12-18T01:24:50;-0.10;99.90
16825;DHT22;8529;48.108;-1.706;2022-12-18T01:27:17;-0.10;99.90
16825;DHT22;8529;48.108;-1.706;2022-12-18T01:29:44;-0.10;99.90
16825;DHT22;8529;48.108;-1.706;2022-12-18T01:32:11;-0.10;99.90
16825;DHT22;8529;48.108;-1.706;2022-12-18T01:34:38;-0.10;99.90
16825;DHT22;8529;48.108;-1.706;2022-12-18T01:37:05;0.00;99.90
16825;DHT22;8529;48.108;-1.706;2022-12-18T01:39:32;0.00;99.90
16825;DHT22;8529;48.108;-1.706;2022-12-18T01:42:02;0.00;99.90
16825;DHT22;8529;48.108;-1.706;2022-12-18T01:44:56;0.10;99.90
16825;DHT22;8529;48.108;-1.706;2022-12-18T01:47:26;0.00;99.90
16825;DHT22;8529;48.108;-1.706;2022-12-18T01:49:55;0.00;99.90
16825;DHT22;8529;48.108;-1.706;2022-12-18T01:52:24;-0.10;99.90
16825;DHT22;8529;48.108;-1.706;2022-12-18T01:54:53;-0.10;99.90
16825;DHT22;8529;48.108;-1.706;2022-12-18T01:57:22;-0.20;99.90
16825;DHT22;8529;48.108;-1.706;2022-12-18T01:59:53;-0.20;99.90
16825;DHT22;8529;48.108;-1.706;2022-12-18T02:02:21;-0.10;99.90
16825;DHT22;8529;48.108;-1.706;2022-12-18T02:04:48;-0.20;99.90
16825;DHT22;8529;48.108;-1.706;2022-12-18T02:07:20;-0.10;99.90
16825;DHT22;8529;48.108;-1.706;2022-12-18T02:09:53;-0.10;99.90
16825;DHT22;8529;48.108;-1.706;2022-12-18T02:12:29;-0.10;99.90
16825;DHT22;8529;48.108;-1.706;2022-12-18T02:15:00;-0.10;99.90
16825;DHT22;8529;48.108;-1.706;2022-12-18T02:17:32;-0.10;99.90
16825;DHT22;8529;48.108;-1.706;2022-12-18T02:20:10;-0.20;99.90
16825;DHT22;8529;48.108;-1.706;2022-12-18T02:22:49;-0.20;99.90
16825;DHT22;8529;48.108;-1.706;2022-12-18T02:25:33;-0.20;99.90
16825;DHT22;8529;48.108;-1.706;2022-12-18T02:28:06;-0.20;99.90
16825;DHT22;8529;48.108;-1.706;2022-12-18T02:30:37;-0.10;99.90
16825;DHT22;8529;48.108;-1.706;2022-12-18T02:33:08;0.00;99.90
16825;DHT22;8529;48.108;-1.706;2022-12-18T02:35:36;-0.10;99.90
16825;DHT22;8529;48.108;-1.706;2022-12-18T02:38:04;-0.20;99.90
16825;DHT22;8529;48.108;-1.706;2022-12-18T02:40:33;-0.10;99.90
16825;DHT22;8529;48.108;-1.706;2022-12-18T02:43:08;-0.20;99.90
16825;DHT22;8529;48.108;-1.706;2022-12-18T02:45:35;-0.20;99.90
16825;DHT22;8529;48.108;-1.706;2022-12-18T02:48:04;-0.30;99.90
16825;DHT22;8529;48.108;-1.706;2022-12-18T02:50:34;-0.20;99.90
16825;DHT22;8529;48.108;-1.706;2022-12-18T02:53:10;-0.20;99.90
16825;DHT22;8529;48.108;-1.706;2022-12-18T02:55:47;-0.30;99.90
16825;DHT22;8529;48.108;-1.706;2022-12-18T02:58:20;-0.30;99.90
16825;DHT22;8529;48.108;-1.706;2022-12-18T03:00:56;-0.30;99.90
16825;DHT22;8529;48.108;-1.706;2022-12-18T03:03:29;-0.20;99.90
16825;DHT22;8529;48.108;-1.706;2022-12-18T03:06:03;-0.30;99.90
16825;DHT22;8529;48.108;-1.706;2022-12-18T03:08:36;-0.20;99.90
16825;DHT22;8529;48.108;-1.706;2022-12-18T03:11:07;-0.20;99.90
16825;DHT22;8529;48.108;-1.706;2022-12-18T03:13:39;-0.10;99.90
16825;DHT22;8529;48.108;-1.706;2022-12-18T03:16:10;-0.10;99.90
16825;DHT22;8529;48.108;-1.706;2022-12-18T03:18:40;-0.10;99.90
16825;DHT22;8529;48.108;-1.706;2022-12-18T03:21:10;0.00;99.90
16825;DHT22;8529;48.108;-1.706;2022-12-18T03:23:42;0.00;99.90
16825;DHT22;8529;48.108;-1.706;2022-12-18T03:26:14;0.10;99.90
16825;DHT22;8529;48.108;-1.706;2022-12-18T03:28:46;0.10;99.90
16825;DHT22;8529;48.108;-1.706;2022-12-18T03:31:14;0.10;99.90
16825;DHT22;8529;48.108;-1.706;2022-12-18T03:33:45;0.10;99.90
16825;DHT22;8529;48.108;-1.706;2022-12-18T03:36:13;0.00;99.90
16825;DHT22;8529;48.108;-1.706;2022-12-18T03:38:40;0.00;99.90
16825;DHT22;8529;48.108;-1.706;2022-12-18T03:41:11;0.10;99.90
16825;DHT22;8529;48.108;-1.706;2022-12-18T03:43:46;0.10;99.90
16825;DHT22;8529;48.108;-1.706;2022-12-18T03:46:21;0.10;99.90
16825;DHT22;8529;48.108;-1.706;2022-12-18T03:48:55;0.10;99.90
16825;DHT22;8529;48.108;-1.706;2022-12-18T03:51:29;0.10;99.90
16825;DHT22;8529;48.108;-1.706;2022-12-18T03:54:00;0.20;99.90
16825;DHT22;8529;48.108;-1.706;2022-12-18T03:56:32;0.20;99.90
16825;DHT22;8529;48.108;-1.706;2022-12-18T03:59:03;0.20;99.90
16825;DHT22;8529;48.108;-1.706;2022-12-18T04:01:34;0.20;99.90
16825;DHT22;8529;48.108;-1.706;2022-12-18T04:04:04;0.30;99.90
16825;DHT22;8529;48.108;-1.706;2022-12-18T04:06:33;0.30;99.90
16825;DHT22;8529;48.108;-1.706;2022-12-18T04:09:02;0.20;99.90
16825;DHT22;8529;48.108;-1.706;2022-12-18T04:11:29;0.20;99.90
16825;DHT22;8529;48.108;-1.706;2022-12-18T04:13:56;0.20;99.90
16825;DHT22;8529;48.108;-1.706;2022-12-18T04:16:26;0.20;99.90
16825;DHT22;8529;48.108;-1.706;2022-12-18T04:18:53;0.30;99.90
16825;DHT22;8529;48.108;-1.706;2022-12-18T04:21:20;0.30;99.90
16825;DHT22;8529;48.108;-1.706;2022-12-18T04:23:48;0.30;99.90
16825;DHT22;8529;48.108;-1.706;2022-12-18T04:26:15;0.30;99.90
16825;DHT22;8529;48.108;-1.706;2022-12-18T04:28:42;0.30;99.90
16825;DHT22;8529;48.108;-1.706;2022-12-18T04:31:09;0.30;99.90
16825;DHT22;8529;48.108;-1.706;2022-12-18T04:33:37;0.30;99.90
16825;DHT22;8529;48.108;-1.706;2022-12-18T04:36:05;0.30;99.90
16825;DHT22;8529;48.108;-1.706;2022-12-18T04:38:32;0.30;99.90
16825;DHT22;8529;48.108;-1.706;2022-12-18T04:40:59;0.30;99.90
16825;DHT22;8529;48.108;-1.706;2022-12-18T04:43:26;0.30;99.90
16825;DHT22;8529;48.108;-1.706;2022-12-18T04:45:53;0.40;99.90
16825;DHT22;8529;48.108;-1.706;2022-12-18T04:48:20;0.40;99.90
16825;DHT22;8529;48.108;-1.706;2022-12-18T04:50:48;0.40;99.90
16825;DHT22;8529;48.108;-1.706;2022-12-18T04:53:15;0.40;99.90
16825;DHT22;8529;48.108;-1.706;2022-12-18T04:55:42;0.40;99.90
16825;DHT22;8529;48.108;-1.706;2022-12-18T04:58:09;0.40;99.90
16825;DHT22;8529;48.108;-1.706;2022-12-18T05:00:36;0.40;99.90
16825;DHT22;8529;48.108;-1.706;2022-12-18T05:03:03;0.40;99.90
16825;DHT22;8529;48.108;-1.706;2022-12-18T05:05:30;0.30;99.90
16825;DHT22;8529;48.108;-1.706;2022-12-18T05:07:59;0.40;99.90
16825;DHT22;8529;48.108;-1.706;2022-12-18T05:10:26;0.30;99.90
16825;DHT22;8529;48.108;-1.706;2022-12-18T05:12:53;0.30;99.90
16825;DHT22;8529;48.108;-1.706;2022-12-18T05:15:27;0.40;99.90
16825;DHT22;8529;48.108;-1.706;2022-12-18T05:17:55;0.40;99.90
16825;DHT22;8529;48.108;-1.706;2022-12-18T05:20:22;0.40;99.90
16825;DHT22;8529;48.108;-1.706;2022-12-18T05:22:50;0.40;99.90
16825;DHT22;8529;48.108;-1.706;2022-12-18T05:25:19;0.40;99.90
16825;DHT22;8529;48.108;-1.706;2022-12-18T05:27:46;0.50;99.90
16825;DHT22;8529;48.108;-1.706;2022-12-18T05:30:14;0.50;99.90
16825;DHT22;8529;48.108;-1.706;2022-12-18T05:32:41;0.50;99.90
16825;DHT22;8529;48.108;-1.706;2022-12-18T05:35:09;0.50;99.90
16825;DHT22;8529;48.108;-1.706;2022-12-18T05:37:36;0.50;99.90
16825;DHT22;8529;48.108;-1.706;2022-12-18T05:40:04;0.50;99.90
16825;DHT22;8529;48.108;-1.706;2022-12-18T05:42:33;0.40;99.90
16825;DHT22;8529;48.108;-1.706;2022-12-18T05:45:00;0.50;99.90
16825;DHT22;8529;48.108;-1.706;2022-12-18T05:47:27;0.40;99.90
16825;DHT22;8529;48.108;-1.706;2022-12-18T05:49:55;0.50;99.90
16825;DHT22;8529;48.108;-1.706;2022-12-18T05:52:22;0.50;99.90
16825;DHT22;8529;48.108;-1.706;2022-12-18T05:54:49;0.50;99.90
16825;DHT22;8529;48.108;-1.706;2022-12-18T05:57:16;0.60;99.90
16825;DHT22;8529;48.108;-1.706;2022-12-18T05:59:44;0.60;99.90
16825;DHT22;8529;48.108;-1.706;2022-12-18T06:02:11;0.50;99.90
16825;DHT22;8529;48.108;-1.706;2022-12-18T06:04:38;0.60;99.90
16825;DHT22;8529;48.108;-1.706;2022-12-18T06:07:05;0.60;99.90
16825;DHT22;8529;48.108;-1.706;2022-12-18T06:09:32;0.60;99.90
16825;DHT22;8529;48.108;-1.706;2022-12-18T06:11:59;0.60;99.90
16825;DHT22;8529;48.108;-1.706;2022-12-18T06:14:26;0.60;99.90
16825;DHT22;8529;48.108;-1.706;2022-12-18T06:16:55;0.60;99.90
16825;DHT22;8529;48.108;-1.706;2022-12-18T06:19:22;0.70;99.90
16825;DHT22;8529;48.108;-1.706;2022-12-18T06:21:49;0.70;99.90
16825;DHT22;8529;48.108;-1.706;2022-12-18T06:24:16;0.70;99.90
16825;DHT22;8529;48.108;-1.706;2022-12-18T06:26:43;0.80;99.90
16825;DHT22;8529;48.108;-1.706;2022-12-18T06:29:10;0.80;99.90
16825;DHT22;8529;48.108;-1.706;2022-12-18T06:31:37;0.80;99.90
16825;DHT22;8529;48.108;-1.706;2022-12-18T06:34:06;0.80;99.90
16825;DHT22;8529;48.108;-1.706;2022-12-18T06:36:33;0.80;99.90
16825;DHT22;8529;48.108;-1.706;2022-12-18T06:39:00;0.70;99.90
16825;DHT22;8529;48.108;-1.706;2022-12-18T06:41:27;0.80;99.90
16825;DHT22;8529;48.108;-1.706;2022-12-18T06:43:54;0.80;99.90
16825;DHT22;8529;48.108;-1.706;2022-12-18T06:46:21;0.80;99.90
16825;DHT22;8529;48.108;-1.706;2022-12-18T06:48:49;0.80;99.90
16825;DHT22;8529;48.108;-1.706;2022-12-18T06:51:19;0.90;99.90
16825;DHT22;8529;48.108;-1.706;2022-12-18T06:53:46;0.90;99.90
16825;DHT22;8529;48.108;-1.706;2022-12-18T06:56:13;0.80;99.90
16825;DHT22;8529;48.108;-1.706;2022-12-18T06:58:40;0.80;99.90
16825;DHT22;8529;48.108;-1.706;2022-12-18T07:01:10;0.90;99.90
16825;DHT22;8529;48.108;-1.706;2022-12-18T07:03:38;0.80;99.90
16825;DHT22;8529;48.108;-1.706;2022-12-18T07:06:05;0.90;99.90
16825;DHT22;8529;48.108;-1.706;2022-12-18T07:08:34;0.90;99.90
16825;DHT22;8529;48.108;-1.706;2022-12-18T07:11:03;0.90;99.90
16825;DHT22;8529;48.108;-1.706;2022-12-18T07:13:31;0.90;99.90
16825;DHT22;8529;48.108;-1.706;2022-12-18T07:16:04;0.90;99.90
16825;DHT22;8529;48.108;-1.706;2022-12-18T07:18:31;0.90;99.90
16825;DHT22;8529;48.108;-1.706;2022-12-18T07:21:02;0.90;99.90
16825;DHT22;8529;48.108;-1.706;2022-12-18T07:23:30;0.90;99.90
16825;DHT22;8529;48.108;-1.706;2022-12-18T07:26:02;1.00;99.90
16825;DHT22;8529;48.108;-1.706;2022-12-18T07:28:30;1.00;99.90
16825;DHT22;8529;48.108;-1.706;2022-12-18T07:30:58;0.90;99.90
16825;DHT22;8529;48.108;-1.706;2022-12-18T07:33:26;0.90;99.90
16825;DHT22;8529;48.108;-1.706;2022-12-18T07:35:53;1.00;99.90
16825;DHT22;8529;48.108;-1.706;2022-12-18T07:38:21;1.00;99.90
16825;DHT22;8529;48.108;-1.706;2022-12-18T07:40:48;1.00;99.90
16825;DHT22;8529;48.108;-1.706;2022-12-18T07:43:16;1.00;99.90
16825;DHT22;8529;48.108;-1.706;2022-12-18T07:45:43;1.00;99.90
16825;DHT22;8529;48.108;-1.706;2022-12-18T07:48:10;1.00;99.90
16825;DHT22;8529;48.108;-1.706;2022-12-18T07:50:37;1.10;99.90
16825;DHT22;8529;48.108;-1.706;2022-12-18T07:53:05;1.10;99.90
16825;DHT22;8529;48.108;-1.706;2022-12-18T07:55:32;1.10;99.90
16825;DHT22;8529;48.108;-1.706;2022-12-18T07:58:01;1.10;99.90
16825;DHT22;8529;48.108;-1.706;2022-12-18T08:00:30;1.10;99.90
16825;DHT22;8529;48.108;-1.706;2022-12-18T08:02:57;1.10;99.90
16825;DHT22;8529;48.108;-1.706;2022-12-18T08:05:25;1.10;99.90
16825;DHT22;8529;48.108;-1.706;2022-12-18T08:07:52;1.10;99.90
16825;DHT22;8529;48.108;-1.706;2022-12-18T08:10:20;1.10;99.90
16825;DHT22;8529;48.108;-1.706;2022-12-18T08:12:49;1.20;99.90
16825;DHT22;8529;48.108;-1.706;2022-12-18T08:15:16;1.20;99.90
16825;DHT22;8529;48.108;-1.706;2022-12-18T08:17:45;1.20;99.90
16825;DHT22;8529;48.108;-1.706;2022-12-18T08:20:12;1.20;99.90
16825;DHT22;8529;48.108;-1.706;2022-12-18T08:22:40;1.20;99.90
16825;DHT22;8529;48.108;-1.706;2022-12-18T08:25:08;1.20;99.90
16825;DHT22;8529;48.108;-1.706;2022-12-18T08:27:35;1.30;99.90
16825;DHT22;8529;48.108;-1.706;2022-12-18T08:30:03;1.30;99.90
16825;DHT22;8529;48.108;-1.706;2022-12-18T08:32:30;1.30;99.90
16825;DHT22;8529;48.108;-1.706;2022-12-18T08:34:59;1.30;99.90
16825;DHT22;8529;48.108;-1.706;2022-12-18T08:37:26;1.30;99.90
16825;DHT22;8529;48.108;-1.706;2022-12-18T08:39:53;1.40;99.90
16825;DHT22;8529;48.108;-1.706;2022-12-18T08:42:20;1.40;99.90
16825;DHT22;8529;48.108;-1.706;2022-12-18T08:45:06;1.40;99.90
16825;DHT22;8529;48.108;-1.706;2022-12-18T08:47:33;1.40;99.90
16825;DHT22;8529;48.108;-1.706;2022-12-18T08:50:01;1.40;99.90
16825;DHT22;8529;48.108;-1.706;2022-12-18T08:52:28;1.40;99.90
16825;DHT22;8529;48.108;-1.706;2022-12-18T08:54:57;1.40;99.90
16825;DHT22;8529;48.108;-1.706;2022-12-18T08:57:24;1.50;99.90
16825;DHT22;8529;48.108;-1.706;2022-12-18T08:59:51;1.50;99.90
16825;DHT22;8529;48.108;-1.706;2022-12-18T09:02:18;1.50;99.90
16825;DHT22;8529;48.108;-1.706;2022-12-18T09:04:46;1.50;99.90
16825;DHT22;8529;48.108;-1.706;2022-12-18T09:07:15;1.50;99.90
16825;DHT22;8529;48.108;-1.706;2022-12-18T09:09:42;1.50;99.90
16825;DHT22;8529;48.108;-1.706;2022-12-18T09:12:09;1.60;99.90
16825;DHT22;8529;48.108;-1.706;2022-12-18T09:14:36;1.60;99.90
16825;DHT22;8529;48.108;-1.706;2022-12-18T09:17:03;1.60;99.90
16825;DHT22;8529;48.108;-1.706;2022-12-18T09:19:30;1.60;99.90
16825;DHT22;8529;48.108;-1.706;2022-12-18T09:21:57;1.70;99.90
16825;DHT22;8529;48.108;-1.706;2022-12-18T09:24:25;1.70;99.90
16825;DHT22;8529;48.108;-1.706;2022-12-18T09:26:53;1.70;99.90
16825;DHT22;8529;48.108;-1.706;2022-12-18T09:29:21;1.70;99.90
16825;DHT22;8529;48.108;-1.706;2022-12-18T09:31:48;1.70;99.90
16825;DHT22;8529;48.108;-1.706;2022-12-18T09:34:16;1.70;99.90
16825;DHT22;8529;48.108;-1.706;2022-12-18T09:36:43;1.80;99.90
16825;DHT22;8529;48.108;-1.706;2022-12-18T09:39:10;1.80;99.90
16825;DHT22;8529;48.108;-1.706;2022-12-18T09:41:45;1.80;99.90
16825;DHT22;8529;48.108;-1.706;2022-12-18T09:44:22;1.80;99.90
16825;DHT22;8529;48.108;-1.706;2022-12-18T09:46:54;1.80;99.90
16825;DHT22;8529;48.108;-1.706;2022-12-18T09:49:26;1.90;99.90
16825;DHT22;8529;48.108;-1.706;2022-12-18T09:51:57;1.90;99.90
16825;DHT22;8529;48.108;-1.706;2022-12-18T09:54:32;1.90;99.90
16825;DHT22;8529;48.108;-1.706;2022-12-18T09:57:02;1.90;99.90
16825;DHT22;8529;48.108;-1.706;2022-12-18T09:59:34;1.90;99.90
16825;DHT22;8529;48.108;-1.706;2022-12-18T10:02:15;1.90;99.90
16825;DHT22;8529;48.108;-1.706;2022-12-18T10:04:44;1.90;99.90
16825;DHT22;8529;48.108;-1.706;2022-12-18T10:07:20;1.90;99.90
16825;DHT22;8529;48.108;-1.706;2022-12-18T10:09:57;2.00;99.90
16825;DHT22;8529;48.108;-1.706;2022-12-18T10:12:34;2.00;99.90
16825;DHT22;8529;48.108;-1.706;2022-12-18T10:15:12;2.00;99.90
16825;DHT22;8529;48.108;-1.706;2022-12-18T10:17:45;2.00;99.90
16825;DHT22;8529;48.108;-1.706;2022-12-18T10:20:21;2.00;99.90
16825;DHT22;8529;48.108;-1.706;2022-12-18T10:22:57;2.10;99.90
16825;DHT22;8529;48.108;-1.706;2022-12-18T10:25:30;2.10;99.90
16825;DHT22;8529;48.108;-1.706;2022-12-18T10:28:08;2.10;99.90
16825;DHT22;8529;48.108;-1.706;2022-12-18T10:30:38;2.10;99.90
16825;DHT22;8529;48.108;-1.706;2022-12-18T10:33:08;2.10;99.90
16825;DHT22;8529;48.108;-1.706;2022-12-18T10:35:36;2.10;99.90
16825;DHT22;8529;48.108;-1.706;2022-12-18T10:38:06;2.10;99.90
16825;DHT22;8529;48.108;-1.706;2022-12-18T10:40:47;2.10;99.90
16825;DHT22;8529;48.108;-1.706;2022-12-18T10:43:20;2.20;99.90
16825;DHT22;8529;48.108;-1.706;2022-12-18T10:46:07;2.20;99.90
16825;DHT22;8529;48.108;-1.706;2022-12-18T10:48:48;2.20;99.90
16825;DHT22;8529;48.108;-1.706;2022-12-18T10:51:20;2.20;99.90
16825;DHT22;8529;48.108;-1.706;2022-12-18T10:53:53;2.20;99.90
16825;DHT22;8529;48.108;-1.706;2022-12-18T10:56:22;2.20;99.90
16825;DHT22;8529;48.108;-1.706;2022-12-18T10:58:58;2.20;99.90
16825;DHT22;8529;48.108;-1.706;2022-12-18T11:01:26;2.20;99.90
16825;DHT22;8529;48.108;-1.706;2022-12-18T11:04:02;2.30;99.90
16825;DHT22;8529;48.108;-1.706;2022-12-18T11:06:29;2.30;99.90
16825;DHT22;8529;48.108;-1.706;2022-12-18T11:09:01;2.30;99.90
16825;DHT22;8529;48.108;-1.706;2022-12-18T11:11:29;2.30;99.90
16825;DHT22;8529;48.108;-1.706;2022-12-18T11:14:02;2.30;99.90
16825;DHT22;8529;48.108;-1.706;2022-12-18T11:16:33;2.30;99.90
16825;DHT22;8529;48.108;-1.706;2022-12-18T11:19:18;2.40;99.90
16825;DHT22;8529;48.108;-1.706;2022-12-18T11:21:47;2.40;99.90
16825;DHT22;8529;48.108;-1.706;2022-12-18T11:24:20;2.40;99.90
16825;DHT22;8529;48.108;-1.706;2022-12-18T11:26:49;2.40;99.90
16825;DHT22;8529;48.108;-1.706;2022-12-18T11:29:23;2.50;99.90
16825;DHT22;8529;48.108;-1.706;2022-12-18T11:31:51;2.50;99.90
16825;DHT22;8529;48.108;-1.706;2022-12-18T11:34:24;2.50;99.90
16825;DHT22;8529;48.108;-1.706;2022-12-18T11:36:53;2.50;99.90
16825;DHT22;8529;48.108;-1.706;2022-12-18T11:39:27;2.50;99.90
16825;DHT22;8529;48.108;-1.706;2022-12-18T11:42:00;2.60;99.90
16825;DHT22;8529;48.108;-1.706;2022-12-18T11:44:43;2.60;99.90
16825;DHT22;8529;48.108;-1.706;2022-12-18T11:47:19;2.60;99.90
16825;DHT22;8529;48.108;-1.706;2022-12-18T11:49:49;2.60;99.90
16825;DHT22;8529;48.108;-1.706;2022-12-18T11:52:18;2.60;99.90
16825;DHT22;8529;48.108;-1.706;2022-12-18T11:54:46;2.70;99.90
16825;DHT22;8529;48.108;-1.706;2022-12-18T11:57:25;2.70;99.90
16825;DHT22;8529;48.108;-1.706;2022-12-18T12:00:02;2.70;99.90
16825;DHT22;8529;48.108;-1.706;2022-12-18T12:05:45;2.80;99.90
16825;DHT22;8529;48.108;-1.706;2022-12-18T12:08:20;2.80;99.90
16825;DHT22;8529;48.108;-1.706;2022-12-18T12:10:58;2.80;99.90
16825;DHT22;8529;48.108;-1.706;2022-12-18T12:13:38;2.90;99.90
16825;DHT22;8529;48.108;-1.706;2022-12-18T12:16:16;2.90;99.90
16825;DHT22;8529;48.108;-1.706;2022-12-18T12:19:06;2.90;99.90
16825;DHT22;8529;48.108;-1.706;2022-12-18T12:21:40;2.90;99.90
16825;DHT22;8529;48.108;-1.706;2022-12-18T12:24:22;3.00;99.90
16825;DHT22;8529;48.108;-1.706;2022-12-18T12:26:58;3.00;99.90
16825;DHT22;8529;48.108;-1.706;2022-12-18T12:29:40;3.00;99.90
16825;DHT22;8529;48.108;-1.706;2022-12-18T12:32:22;3.00;99.90
16825;DHT22;8529;48.108;-1.706;2022-12-18T12:35:08;3.00;99.90
16825;DHT22;8529;48.108;-1.706;2022-12-18T12:37:47;3.10;99.90
16825;DHT22;8529;48.108;-1.706;2022-12-18T12:40:19;3.10;99.90
16825;DHT22;8529;48.108;-1.706;2022-12-18T12:42:52;3.10;99.90
16825;DHT22;8529;48.108;-1.706;2022-12-18T12:45:44;3.10;99.90
16825;DHT22;8529;48.108;-1.706;2022-12-18T12:48:20;3.10;99.90
16825;DHT22;8529;48.108;-1.706;2022-12-18T12:50:50;3.10;99.90
16825;DHT22;8529;48.108;-1.706;2022-12-18T12:53:25;3.10;99.90
16825;DHT22;8529;48.108;-1.706;2022-12-18T12:55:53;3.20;99.90
16825;DHT22;8529;48.108;-1.706;2022-12-18T12:58:29;3.20;99.90
16825;DHT22;8529;48.108;-1.706;2022-12-18T13:01:08;3.20;99.90
16825;DHT22;8529;48.108;-1.706;2022-12-18T13:03:44;3.30;99.90
16825;DHT22;8529;48.108;-1.706;2022-12-18T13:06:18;3.30;99.90
16825;DHT22;8529;48.108;-1.706;2022-12-18T13:08:55;3.40;99.90
16825;DHT22;8529;48.108;-1.706;2022-12-18T13:11:37;3.40;99.90
16825;DHT22;8529;48.108;-1.706;2022-12-18T13:14:31;3.40;99.90
16825;DHT22;8529;48.108;-1.706;2022-12-18T13:17:24;3.40;99.90
16825;DHT22;8529;48.108;-1.706;2022-12-18T13:20:06;3.50;99.90
16825;DHT22;8529;48.108;-1.706;2022-12-18T13:22:36;3.50;99.90
16825;DHT22;8529;48.108;-1.706;2022-12-18T13:25:31;3.50;99.90
16825;DHT22;8529;48.108;-1.706;2022-12-18T13:28:07;3.50;99.90
16825;DHT22;8529;48.108;-1.706;2022-12-18T13:30:47;3.50;99.90
16825;DHT22;8529;48.108;-1.706;2022-12-18T13:33:43;3.50;99.90
16825;DHT22;8529;48.108;-1.706;2022-12-18T13:36:25;3.60;99.90
16825;DHT22;8529;48.108;-1.706;2022-12-18T13:39:15;3.60;99.90
16825;DHT22;8529;48.108;-1.706;2022-12-18T13:41:49;3.60;99.90
16825;DHT22;8529;48.108;-1.706;2022-12-18T13:44:25;3.60;99.90
16825;DHT22;8529;48.108;-1.706;2022-12-18T13:46:53;3.70;99.90
16825;DHT22;8529;48.108;-1.706;2022-12-18T13:49:23;3.70;99.90
16825;DHT22;8529;48.108;-1.706;2022-12-18T13:51:54;3.70;99.90
16825;DHT22;8529;48.108;-1.706;2022-12-18T13:54:25;3.70;99.90
16825;DHT22;8529;48.108;-1.706;2022-12-18T13:56:55;3.80;99.90
16825;DHT22;8529;48.108;-1.706;2022-12-18T13:59:24;3.80;99.90
16825;DHT22;8529;48.108;-1.706;2022-12-18T14:01:54;3.80;99.90
16825;DHT22;8529;48.108;-1.706;2022-12-18T14:04:25;3.90;99.90
16825;DHT22;8529;48.108;-1.706;2022-12-18T14:06:57;3.90;99.90
16825;DHT22;8529;48.108;-1.706;2022-12-18T14:09:28;3.90;99.90
16825;DHT22;8529;48.108;-1.706;2022-12-18T14:11:58;3.90;99.90
16825;DHT22;8529;48.108;-1.706;2022-12-18T14:14:42;4.00;99.90
16825;DHT22;8529;48.108;-1.706;2022-12-18T14:17:10;4.00;99.90
16825;DHT22;8529;48.108;-1.706;2022-12-18T14:19:41;4.00;99.90
16825;DHT22;8529;48.108;-1.706;2022-12-18T14:22:15;4.00;99.90
16825;DHT22;8529;48.108;-1.706;2022-12-18T14:24:42;4.10;99.90
16825;DHT22;8529;48.108;-1.706;2022-12-18T14:27:20;4.10;99.90
16825;DHT22;8529;48.108;-1.706;2022-12-18T14:29:48;4.20;99.90
16825;DHT22;8529;48.108;-1.706;2022-12-18T14:32:17;4.20;99.90
16825;DHT22;8529;48.108;-1.706;2022-12-18T14:34:45;4.30;99.90
16825;DHT22;8529;48.108;-1.706;2022-12-18T14:37:15;4.30;99.90
16825;DHT22;8529;48.108;-1.706;2022-12-18T14:40:01;4.40;99.90
16825;DHT22;8529;48.108;-1.706;2022-12-18T14:42:30;4.40;99.90
16825;DHT22;8529;48.108;-1.706;2022-12-18T14:45:34;4.40;99.90
16825;DHT22;8529;48.108;-1.706;2022-12-18T14:48:05;4.40;99.90
16825;DHT22;8529;48.108;-1.706;2022-12-18T14:50:34;4.40;99.90
16825;DHT22;8529;48.108;-1.706;2022-12-18T14:53:03;4.50;99.90
16825;DHT22;8529;48.108;-1.706;2022-12-18T14:55:30;4.50;99.90
16825;DHT22;8529;48.108;-1.706;2022-12-18T14:57:58;4.50;99.90
16825;DHT22;8529;48.108;-1.706;2022-12-18T15:00:25;4.60;99.90
16825;DHT22;8529;48.108;-1.706;2022-12-18T15:02:54;4.60;99.90
16825;DHT22;8529;48.108;-1.706;2022-12-18T15:05:26;4.60;99.90
16825;DHT22;8529;48.108;-1.706;2022-12-18T15:07:55;4.60;99.90
16825;DHT22;8529;48.108;-1.706;2022-12-18T15:10:25;4.60;99.90
16825;DHT22;8529;48.108;-1.706;2022-12-18T15:13:08;4.60;99.90
16825;DHT22;8529;48.108;-1.706;2022-12-18T15:15:46;4.70;99.90
16825;DHT22;8529;48.108;-1.706;2022-12-18T15:18:14;4.70;99.90
16825;DHT22;8529;48.108;-1.706;2022-12-18T15:20:44;4.70;99.90
16825;DHT22;8529;48.108;-1.706;2022-12-18T15:23:19;4.70;99.90
16825;DHT22;8529;48.108;-1.706;2022-12-18T15:25:54;4.70;99.90
16825;DHT22;8529;48.108;-1.706;2022-12-18T15:28:24;4.70;99.90
16825;DHT22;8529;48.108;-1.706;2022-12-18T15:31:03;4.70;99.90
16825;DHT22;8529;48.108;-1.706;2022-12-18T15:33:32;4.80;99.90
16825;DHT22;8529;48.108;-1.706;2022-12-18T15:36:01;4.80;99.90
16825;DHT22;8529;48.108;-1.706;2022-12-18T15:38:28;4.80;99.90
16825;DHT22;8529;48.108;-1.706;2022-12-18T15:40:57;4.80;99.90
16825;DHT22;8529;48.108;-1.706;2022-12-18T15:43:25;4.90;99.90
16825;DHT22;8529;48.108;-1.706;2022-12-18T15:46:02;4.90;99.90
16825;DHT22;8529;48.108;-1.706;2022-12-18T15:48:30;5.00;99.90
16825;DHT22;8529;48.108;-1.706;2022-12-18T15:50:58;5.10;99.90
16825;DHT22;8529;48.108;-1.706;2022-12-18T15:53:27;5.10;99.90
16825;DHT22;8529;48.108;-1.706;2022-12-18T15:55:57;5.10;99.90
16825;DHT22;8529;48.108;-1.706;2022-12-18T15:58:42;5.10;99.90
16825;DHT22;8529;48.108;-1.706;2022-12-18T16:01:09;5.20;99.90
16825;DHT22;8529;48.108;-1.706;2022-12-18T16:03:37;5.20;99.90
16825;DHT22;8529;48.108;-1.706;2022-12-18T16:06:04;5.20;99.90
16825;DHT22;8529;48.108;-1.706;2022-12-18T16:08:31;5.20;99.90